sensor_id;sensor_type;location;lat;lon;timestamp;temperature;humidity
32139;DHT22;18644;48.700;9.210;2022-12-24T00:01:38;13.70;67.90
32139;DHT22;18644;48.700;9.210;2022-12-24T00:04:05;13.70;68.00
32139;DHT22;18644;48.700;9.210;2022-12-24T00:06:32;13.70;68.00
32139;DHT22;18644;48.700;9.210;2022-12-24T00:08:59;13.60;68.00
32139;DHT22;18644;48.700;9.210;2022-12-24T00:11:27;13.60;68.10
32139;DHT22;18644;48.700;9.210;2022-12-24T00:13:55;13.60;68.10
32139;DHT22;18644;48.700;9.210;2022-12-24T00:16:22;13.60;68.10
32139;DHT22;18644;48.700;9.210;2022-12-24T00:18:49;13.60;68.10
32139;DHT22;18644;48.700;9.210;2022-12-24T00:21:16;13.60;68.20
32139;DHT22;18644;48.700;9.210;2022-12-24T00:23:43;13.60;68.10
32139;DHT22;18644;48.700;9.210;2022-12-24T00:26:10;13.60;68.10
32139;DHT22;18644;48.700;9.210;2022-12-24T00:28:40;13.60;68.00
32139;DHT22;18644;48.700;9.210;2022-12-24T00:31:09;13.60;68.00
32139;DHT22;18644;48.700;9.210;2022-12-24T00:33:37;13.60;67.90
32139;DHT22;18644;48.700;9.210;2022-12-24T00:36:05;13.60;67.80
32139;DHT22;18644;48.700;9.210;2022-12-24T00:38:33;13.60;67.80
32139;DHT22;18644;48.700;9.210;2022-12-24T00:41:00;13.60;67.80
32139;DHT22;18644;48.700;9.210;2022-12-24T00:43:28;13.50;67.70
32139;DHT22;18644;48.700;9.210;2022-12-24T00:45:59;13.60;67.70
32139;DHT22;18644;48.700;9.210;2022-12-24T00:48:26;13.50;67.60
32139;DHT22;18644;48.700;9.210;2022-12-24T00:50:53;13.50;67.60
32139;DHT22;18644;48.700;9.210;2022-12-24T00:53:20;13.50;67.50
32139;DHT22;18644;48.700;9.210;2022-12-24T00:55:46;13.50;67.50
32139;DHT22;18644;48.700;9.210;2022-12-24T00:58:13;13.50;67.40
32139;DHT22;18644;48.700;9.210;2022-12-24T01:00:40;13.50;67.30
32139;DHT22;18644;48.700;9.210;2022-12-24T01:03:08;13.50;67.30
32139;DHT22;18644;48.700;9.210;2022-12-24T01:05:35;13.40;67.20
32139;DHT22;18644;48.700;9.210;2022-12-24T01:08:01;13.40;67.20
32139;DHT22;18644;48.700;9.210;2022-12-24T01:10:28;13.40;67.20
32139;DHT22;18644;48.700;9.210;2022-12-24T01:12:55;13.30;67.10
32139;DHT22;18644;48.700;9.210;2022-12-24T01:15:22;13.30;67.20
32139;DHT22;18644;48.700;9.210;2022-12-24T01:17:49;13.30;67.30
32139;DHT22;18644;48.700;9.210;2022-12-24T01:20:17;13.30;67.30
32139;DHT22;18644;48.700;9.210;2022-12-24T01:22:44;13.30;67.40
32139;DHT22;18644;48.700;9.210;2022-12-24T01:25:11;13.20;67.40
32139;DHT22;18644;48.700;9.210;2022-12-24T01:27:38;13.20;67.40
32139;DHT22;18644;48.700;9.210;2022-12-24T01:30:07;13.20;67.40
32139;DHT22;18644;48.700;9.210;2022-12-24T01:32:34;13.20;67.50
32139;DHT22;18644;48.700;9.210;2022-12-24T01:35:01;13.20;67.50
32139;DHT22;18644;48.700;9.210;2022-12-24T01:37:30;13.20;67.60
32139;DHT22;18644;48.700;9.210;2022-12-24T01:39:57;13.20;67.60
32139;DHT22;18644;48.700;9.210;2022-12-24T01:42:38;13.20;67.70
32139;DHT22;18644;48.700;9.210;2022-12-24T01:45:45;13.20;67.80
32139;DHT22;18644;48.700;9.210;2022-12-24T01:48:19;13.10;67.80
32139;DHT22;18644;48.700;9.210;2022-12-24T01:50:54;13.10;67.80
32139;DHT22;18644;48.700;9.210;2022-12-24T01:53:25;13.10;67.80
32139;DHT22;18644;48.700;9.210;2022-12-24T01:55:52;13.10;67.80
32139;DHT22;18644;48.700;9.210;2022-12-24T01:58:21;13.10;67.90
32139;DHT22;18644;48.700;9.210;2022-12-24T02:00:50;13.10;68.00
32139;DHT22;18644;48.700;9.210;2022-12-24T02:03:17;13.00;68.10
32139;DHT22;18644;48.700;9.210;2022-12-24T02:05:46;13.00;68.10
32139;DHT22;18644;48.700;9.210;2022-12-24T02:08:15;13.00;68.10
32139;DHT22;18644;48.700;9.210;2022-12-24T02:10:45;13.10;68.20
32139;DHT22;18644;48.700;9.210;2022-12-24T02:13:13;13.00;68.10
32139;DHT22;18644;48.700;9.210;2022-12-24T02:15:50;13.10;68.30
32139;DHT22;18644;48.700;9.210;2022-12-24T02:18:26;13.00;68.20
32139;DHT22;18644;48.700;9.210;2022-12-24T02:21:14;13.10;68.30
32139;DHT22;18644;48.700;9.210;2022-12-24T02:24:13;13.10;68.40
32139;DHT22;18644;48.700;9.210;2022-12-24T02:27:18;13.10;68.40
32139;DHT22;18644;48.700;9.210;2022-12-24T02:30:03;13.10;68.30
32139;DHT22;18644;48.700;9.210;2022-12-24T02:32:43;13.10;68.10
32139;DHT22;18644;48.700;9.210;2022-12-24T02:35:19;13.10;68.10
32139;DHT22;18644;48.700;9.210;2022-12-24T02:37:52;13.10;68.10
32139;DHT22;18644;48.700;9.210;2022-12-24T02:40:26;13.10;68.10
32139;DHT22;18644;48.700;9.210;2022-12-24T02:42:57;13.00;68.10
32139;DHT22;18644;48.700;9.210;2022-12-24T02:45:33;13.00;68.10
32139;DHT22;18644;48.700;9.210;2022-12-24T02:48:01;13.00;68.10
32139;DHT22;18644;48.700;9.210;2022-12-24T02:50:28;13.00;68.20
32139;DHT22;18644;48.700;9.210;2022-12-24T02:52:55;13.00;68.20
32139;DHT22;18644;48.700;9.210;2022-12-24T02:55:26;13.00;68.30
32139;DHT22;18644;48.700;9.210;2022-12-24T02:58:08;13.00;68.30
32139;DHT22;18644;48.700;9.210;2022-12-24T03:00:51;12.90;68.30
32139;DHT22;18644;48.700;9.210;2022-12-24T03:03:32;12.90;68.30
32139;DHT22;18644;48.700;9.210;2022-12-24T03:06:08;12.90;68.20
32139;DHT22;18644;48.700;9.210;2022-12-24T03:08:44;12.90;68.20
32139;DHT22;18644;48.700;9.210;2022-12-24T03:11:15;12.90;68.30
32139;DHT22;18644;48.700;9.210;2022-12-24T03:13:43;12.90;68.30
32139;DHT22;18644;48.700;9.210;2022-12-24T03:16:14;12.90;68.40
32139;DHT22;18644;48.700;9.210;2022-12-24T03:18:45;12.90;68.40
32139;DHT22;18644;48.700;9.210;2022-12-24T03:21:16;12.80;68.30
32139;DHT22;18644;48.700;9.210;2022-12-24T03:23:47;12.90;68.30
32139;DHT22;18644;48.700;9.210;2022-12-24T03:26:17;12.90;68.30
32139;DHT22;18644;48.700;9.210;2022-12-24T03:28:45;12.80;68.30
32139;DHT22;18644;48.700;9.210;2022-12-24T03:31:14;12.80;68.30
32139;DHT22;18644;48.700;9.210;2022-12-24T03:33:41;12.80;68.30
32139;DHT22;18644;48.700;9.210;2022-12-24T03:36:09;12.80;68.30
32139;DHT22;18644;48.700;9.210;2022-12-24T03:38:36;12.80;68.30
32139;DHT22;18644;48.700;9.210;2022-12-24T03:41:04;12.80;68.40
32139;DHT22;18644;48.700;9.210;2022-12-24T03:43:31;12.80;68.40
32139;DHT22;18644;48.700;9.210;2022-12-24T03:46:02;12.80;68.40
32139;DHT22;18644;48.700;9.210;2022-12-24T03:48:34;12.80;68.40
32139;DHT22;18644;48.700;9.210;2022-12-24T03:51:01;12.80;68.50
32139;DHT22;18644;48.700;9.210;2022-12-24T03:53:28;12.80;68.40
32139;DHT22;18644;48.700;9.210;2022-12-24T03:55:55;12.80;68.50
32139;DHT22;18644;48.700;9.210;2022-12-24T03:58:22;12.80;68.50
32139;DHT22;18644;48.700;9.210;2022-12-24T04:00:49;12.80;68.50
32139;DHT22;18644;48.700;9.210;2022-12-24T04:03:18;12.80;68.50
32139;DHT22;18644;48.700;9.210;2022-12-24T04:05:46;12.80;68.50
32139;DHT22;18644;48.700;9.210;2022-12-24T04:08:13;12.70;68.40
32139;DHT22;18644;48.700;9.210;2022-12-24T04:10:40;12.80;68.50
32139;DHT22;18644;48.700;9.210;2022-12-24T04:13:07;12.70;68.50
32139;DHT22;18644;48.700;9.210;2022-12-24T04:15:34;12.80;68.60
32139;DHT22;18644;48.700;9.210;2022-12-24T04:18:01;12.80;68.60
32139;DHT22;18644;48.700;9.210;2022-12-24T04:20:27;12.80;68.60
32139;DHT22;18644;48.700;9.210;2022-12-24T04:22:56;12.80;68.70
32139;DHT22;18644;48.700;9.210;2022-12-24T04:25:22;12.80;68.70
32139;DHT22;18644;48.700;9.210;2022-12-24T04:27:49;12.80;68.60
32139;DHT22;18644;48.700;9.210;2022-12-24T04:30:16;12.80;68.50
32139;DHT22;18644;48.700;9.210;2022-12-24T04:32:43;12.70;68.30
32139;DHT22;18644;48.700;9.210;2022-12-24T04:35:10;12.70;68.20
32139;DHT22;18644;48.700;9.210;2022-12-24T04:37:37;12.70;68.30
32139;DHT22;18644;48.700;9.210;2022-12-24T04:40:07;12.70;68.30
32139;DHT22;18644;48.700;9.210;2022-12-24T04:42:34;12.70;68.30
32139;DHT22;18644;48.700;9.210;2022-12-24T04:45:01;12.60;68.20
32139;DHT22;18644;48.700;9.210;2022-12-24T04:47:28;12.60;68.20
32139;DHT22;18644;48.700;9.210;2022-12-24T04:49:55;12.60;68.20
32139;DHT22;18644;48.700;9.210;2022-12-24T04:52:22;12.60;68.20
32139;DHT22;18644;48.700;9.210;2022-12-24T04:54:49;12.50;68.10
32139;DHT22;18644;48.700;9.210;2022-12-24T04:57:17;12.50;68.20
32139;DHT22;18644;48.700;9.210;2022-12-24T04:59:44;12.50;68.20
32139;DHT22;18644;48.700;9.210;2022-12-24T05:02:11;12.50;68.30
32139;DHT22;18644;48.700;9.210;2022-12-24T05:04:38;12.40;68.20
32139;DHT22;18644;48.700;9.210;2022-12-24T05:07:05;12.50;68.30
32139;DHT22;18644;48.700;9.210;2022-12-24T05:09:32;12.40;68.30
32139;DHT22;18644;48.700;9.210;2022-12-24T05:11:59;12.40;68.30
32139;DHT22;18644;48.700;9.210;2022-12-24T05:14:28;12.40;68.30
32139;DHT22;18644;48.700;9.210;2022-12-24T05:16:55;12.40;68.30
32139;DHT22;18644;48.700;9.210;2022-12-24T05:19:22;12.40;68.40
32139;DHT22;18644;48.700;9.210;2022-12-24T05:21:49;12.40;68.40
32139;DHT22;18644;48.700;9.210;2022-12-24T05:24:30;12.40;68.50
32139;DHT22;18644;48.700;9.210;2022-12-24T05:27:14;12.30;68.50
32139;DHT22;18644;48.700;9.210;2022-12-24T05:29:43;12.30;68.50
32139;DHT22;18644;48.700;9.210;2022-12-24T05:32:10;12.30;68.50
32139;DHT22;18644;48.700;9.210;2022-12-24T05:34:37;12.30;68.60
32139;DHT22;18644;48.700;9.210;2022-12-24T05:37:04;12.30;68.60
32139;DHT22;18644;48.700;9.210;2022-12-24T05:39:30;12.30;68.60
32139;DHT22;18644;48.700;9.210;2022-12-24T05:41:57;12.30;68.60
32139;DHT22;18644;48.700;9.210;2022-12-24T05:44:24;12.30;68.60
32139;DHT22;18644;48.700;9.210;2022-12-24T05:46:53;12.30;68.50
32139;DHT22;18644;48.700;9.210;2022-12-24T05:49:20;12.30;68.50
32139;DHT22;18644;48.700;9.210;2022-12-24T05:51:46;12.30;68.40
32139;DHT22;18644;48.700;9.210;2022-12-24T05:54:13;12.30;68.40
32139;DHT22;18644;48.700;9.210;2022-12-24T05:56:40;12.30;68.40
32139;DHT22;18644;48.700;9.210;2022-12-24T05:59:07;12.30;68.40
32139;DHT22;18644;48.700;9.210;2022-12-24T06:01:34;12.30;68.40
32139;DHT22;18644;48.700;9.210;2022-12-24T06:04:03;12.20;68.30
32139;DHT22;18644;48.700;9.210;2022-12-24T06:06:30;12.30;68.30
32139;DHT22;18644;48.700;9.210;2022-12-24T06:08:57;12.20;68.30
32139;DHT22;18644;48.700;9.210;2022-12-24T06:11:25;12.20;68.20
32139;DHT22;18644;48.700;9.210;2022-12-24T06:13:53;12.20;68.20
32139;DHT22;18644;48.700;9.210;2022-12-24T06:16:22;12.20;68.20
32139;DHT22;18644;48.700;9.210;2022-12-24T06:18:51;12.10;68.90
32139;DHT22;18644;48.700;9.210;2022-12-24T06:21:20;12.10;68.10
32139;DHT22;18644;48.700;9.210;2022-12-24T06:23:47;12.10;68.10
32139;DHT22;18644;48.700;9.210;2022-12-24T06:26:17;12.10;68.10
32139;DHT22;18644;48.700;9.210;2022-12-24T06:28:46;12.10;68.10
32139;DHT22;18644;48.700;9.210;2022-12-24T06:31:16;12.00;68.10
32139;DHT22;18644;48.700;9.210;2022-12-24T06:33:46;12.00;68.20
32139;DHT22;18644;48.700;9.210;2022-12-24T06:36:15;12.00;68.20
32139;DHT22;18644;48.700;9.210;2022-12-24T06:38:44;11.90;68.10
32139;DHT22;18644;48.700;9.210;2022-12-24T06:41:11;11.90;68.10
32139;DHT22;18644;48.700;9.210;2022-12-24T06:43:38;11.90;68.10
32139;DHT22;18644;48.700;9.210;2022-12-24T06:46:05;11.90;68.10
32139;DHT22;18644;48.700;9.210;2022-12-24T06:48:32;11.80;68.20
32139;DHT22;18644;48.700;9.210;2022-12-24T06:51:00;11.80;68.20
32139;DHT22;18644;48.700;9.210;2022-12-24T06:53:27;11.80;68.10
32139;DHT22;18644;48.700;9.210;2022-12-24T06:56:01;11.80;68.10
32139;DHT22;18644;48.700;9.210;2022-12-24T06:58:28;11.80;68.10
32139;DHT22;18644;48.700;9.210;2022-12-24T07:00:55;11.70;68.10
32139;DHT22;18644;48.700;9.210;2022-12-24T07:03:22;11.70;68.20
32139;DHT22;18644;48.700;9.210;2022-12-24T07:05:49;11.70;68.30
32139;DHT22;18644;48.700;9.210;2022-12-24T07:08:16;11.70;68.50
32139;DHT22;18644;48.700;9.210;2022-12-24T07:10:43;11.70;68.60
32139;DHT22;18644;48.700;9.210;2022-12-24T07:13:11;11.70;68.80
32139;DHT22;18644;48.700;9.210;2022-12-24T07:15:38;11.70;68.90
32139;DHT22;18644;48.700;9.210;2022-12-24T07:18:05;11.70;69.00
32139;DHT22;18644;48.700;9.210;2022-12-24T07:20:32;11.70;69.10
32139;DHT22;18644;48.700;9.210;2022-12-24T07:22:59;11.70;69.20
32139;DHT22;18644;48.700;9.210;2022-12-24T07:25:26;11.70;69.30
32139;DHT22;18644;48.700;9.210;2022-12-24T07:27:53;11.70;69.30
32139;DHT22;18644;48.700;9.210;2022-12-24T07:30:21;11.70;69.30
32139;DHT22;18644;48.700;9.210;2022-12-24T07:32:48;11.70;69.30
32139;DHT22;18644;48.700;9.210;2022-12-24T07:35:16;11.80;69.30
32139;DHT22;18644;48.700;9.210;2022-12-24T07:37:42;11.80;69.30
32139;DHT22;18644;48.700;9.210;2022-12-24T07:40:10;11.80;70.10
32139;DHT22;18644;48.700;9.210;2022-12-24T07:42:37;11.80;69.40
32139;DHT22;18644;48.700;9.210;2022-12-24T07:45:05;11.80;69.40
32139;DHT22;18644;48.700;9.210;2022-12-24T07:47:35;11.80;69.40
32139;DHT22;18644;48.700;9.210;2022-12-24T07:50:02;11.80;69.50
32139;DHT22;18644;48.700;9.210;2022-12-24T07:52:29;11.80;69.40
32139;DHT22;18644;48.700;9.210;2022-12-24T07:54:56;11.80;69.40
32139;DHT22;18644;48.700;9.210;2022-12-24T07:57:23;11.80;69.40
32139;DHT22;18644;48.700;9.210;2022-12-24T07:59:50;11.80;69.50
32139;DHT22;18644;48.700;9.210;2022-12-24T08:02:16;11.90;69.60
32139;DHT22;18644;48.700;9.210;2022-12-24T08:04:45;11.90;69.60
32139;DHT22;18644;48.700;9.210;2022-12-24T08:07:11;11.90;69.70
32139;DHT22;18644;48.700;9.210;2022-12-24T08:09:38;11.90;69.60
32139;DHT22;18644;48.700;9.210;2022-12-24T08:12:06;12.00;69.60
32139;DHT22;18644;48.700;9.210;2022-12-24T08:14:33;12.00;69.50
32139;DHT22;18644;48.700;9.210;2022-12-24T08:17:00;12.00;69.50
32139;DHT22;18644;48.700;9.210;2022-12-24T08:19:26;12.00;69.50
32139;DHT22;18644;48.700;9.210;2022-12-24T08:21:55;12.10;70.30
32139;DHT22;18644;48.700;9.210;2022-12-24T08:24:22;12.10;69.50
32139;DHT22;18644;48.700;9.210;2022-12-24T08:26:49;12.10;70.20
32139;DHT22;18644;48.700;9.210;2022-12-24T08:29:16;12.10;69.30
32139;DHT22;18644;48.700;9.210;2022-12-24T08:31:43;12.20;69.40
32139;DHT22;18644;48.700;9.210;2022-12-24T08:34:10;12.20;69.30
32139;DHT22;18644;48.700;9.210;2022-12-24T08:36:37;12.20;69.30
32139;DHT22;18644;48.700;9.210;2022-12-24T08:39:05;12.20;69.30
32139;DHT22;18644;48.700;9.210;2022-12-24T08:41:33;12.30;69.30
32139;DHT22;18644;48.700;9.210;2022-12-24T08:44:00;12.30;69.20
32139;DHT22;18644;48.700;9.210;2022-12-24T08:46:27;12.30;69.20
32139;DHT22;18644;48.700;9.210;2022-12-24T08:48:54;12.40;69.20
32139;DHT22;18644;48.700;9.210;2022-12-24T08:51:21;12.40;69.10
32139;DHT22;18644;48.700;9.210;2022-12-24T08:53:48;12.40;68.90
32139;DHT22;18644;48.700;9.210;2022-12-24T08:56:17;12.40;68.80
32139;DHT22;18644;48.700;9.210;2022-12-24T08:58:44;12.50;68.70
32139;DHT22;18644;48.700;9.210;2022-12-24T09:01:12;12.50;68.60
32139;DHT22;18644;48.700;9.210;2022-12-24T09:03:41;12.50;68.50
32139;DHT22;18644;48.700;9.210;2022-12-24T09:06:08;12.50;68.50
32139;DHT22;18644;48.700;9.210;2022-12-24T09:08:35;12.50;68.40
32139;DHT22;18644;48.700;9.210;2022-12-24T09:11:04;12.60;68.40
32139;DHT22;18644;48.700;9.210;2022-12-24T09:13:33;12.60;68.30
32139;DHT22;18644;48.700;9.210;2022-12-24T09:16:00;12.60;68.30
32139;DHT22;18644;48.700;9.210;2022-12-24T09:18:27;12.60;68.30
32139;DHT22;18644;48.700;9.210;2022-12-24T09:20:58;12.60;68.30
32139;DHT22;18644;48.700;9.210;2022-12-24T09:23:26;12.70;68.40
32139;DHT22;18644;48.700;9.210;2022-12-24T09:25:53;12.70;68.30
32139;DHT22;18644;48.700;9.210;2022-12-24T09:28:20;12.80;68.20
32139;DHT22;18644;48.700;9.210;2022-12-24T09:30:56;12.80;68.10
32139;DHT22;18644;48.700;9.210;2022-12-24T09:33:24;12.80;68.00
32139;DHT22;18644;48.700;9.210;2022-12-24T09:35:51;12.90;68.20
32139;DHT22;18644;48.700;9.210;2022-12-24T09:38:19;12.90;68.10
32139;DHT22;18644;48.700;9.210;2022-12-24T09:40:47;13.00;68.00
32139;DHT22;18644;48.700;9.210;2022-12-24T09:43:16;13.00;67.80
32139;DHT22;18644;48.700;9.210;2022-12-24T09:45:48;13.00;67.70
32139;DHT22;18644;48.700;9.210;2022-12-24T09:48:22;13.10;67.60
32139;DHT22;18644;48.700;9.210;2022-12-24T09:50:53;13.10;67.40
32139;DHT22;18644;48.700;9.210;2022-12-24T09:53:27;13.10;67.20
32139;DHT22;18644;48.700;9.210;2022-12-24T09:55:59;13.10;67.10
32139;DHT22;18644;48.700;9.210;2022-12-24T09:58:31;13.10;67.00
32139;DHT22;18644;48.700;9.210;2022-12-24T10:01:01;13.10;66.80
32139;DHT22;18644;48.700;9.210;2022-12-24T10:03:30;13.10;67.00
32139;DHT22;18644;48.700;9.210;2022-12-24T10:06:04;13.10;67.40
32139;DHT22;18644;48.700;9.210;2022-12-24T10:08:39;13.10;67.80
32139;DHT22;18644;48.700;9.210;2022-12-24T10:11:17;13.30;68.30
32139;DHT22;18644;48.700;9.210;2022-12-24T10:14:01;13.40;68.60
32139;DHT22;18644;48.700;9.210;2022-12-24T10:16:39;13.50;68.40
32139;DHT22;18644;48.700;9.210;2022-12-24T10:19:22;13.60;68.10
32139;DHT22;18644;48.700;9.210;2022-12-24T10:22:10;13.70;67.70
32139;DHT22;18644;48.700;9.210;2022-12-24T10:24:49;13.80;67.50
32139;DHT22;18644;48.700;9.210;2022-12-24T10:27:21;13.80;67.30
32139;DHT22;18644;48.700;9.210;2022-12-24T10:29:55;13.90;67.30
32139;DHT22;18644;48.700;9.210;2022-12-24T10:32:30;14.00;67.50
32139;DHT22;18644;48.700;9.210;2022-12-24T10:35:05;14.10;67.60
32139;DHT22;18644;48.700;9.210;2022-12-24T10:37:38;14.10;67.20
32139;DHT22;18644;48.700;9.210;2022-12-24T10:40:08;14.20;67.00
32139;DHT22;18644;48.700;9.210;2022-12-24T10:42:41;14.20;66.70
32139;DHT22;18644;48.700;9.210;2022-12-24T10:45:13;14.30;66.70
32139;DHT22;18644;48.700;9.210;2022-12-24T10:47:44;14.30;66.50
32139;DHT22;18644;48.700;9.210;2022-12-24T10:50:18;14.40;66.60
32139;DHT22;18644;48.700;9.210;2022-12-24T10:52:52;14.40;66.60
32139;DHT22;18644;48.700;9.210;2022-12-24T10:55:27;14.40;66.70
32139;DHT22;18644;48.700;9.210;2022-12-24T10:58:00;14.50;66.60
32139;DHT22;18644;48.700;9.210;2022-12-24T11:00:28;14.50;66.40
32139;DHT22;18644;48.700;9.210;2022-12-24T11:03:23;14.50;66.50
32139;DHT22;18644;48.700;9.210;2022-12-24T11:06:05;14.60;66.30
32139;DHT22;18644;48.700;9.210;2022-12-24T11:08:35;14.70;66.70
32139;DHT22;18644;48.700;9.210;2022-12-24T11:11:05;14.70;67.30
32139;DHT22;18644;48.700;9.210;2022-12-24T11:13:35;14.80;66.20
32139;DHT22;18644;48.700;9.210;2022-12-24T11:16:07;14.80;65.90
32139;DHT22;18644;48.700;9.210;2022-12-24T11:18:46;14.80;65.60
32139;DHT22;18644;48.700;9.210;2022-12-24T11:21:23;14.90;65.60
32139;DHT22;18644;48.700;9.210;2022-12-24T11:23:53;14.90;65.40
32139;DHT22;18644;48.700;9.210;2022-12-24T11:26:24;14.90;65.20
32139;DHT22;18644;48.700;9.210;2022-12-24T11:29:12;14.90;65.20
32139;DHT22;18644;48.700;9.210;2022-12-24T11:31:41;14.90;64.60
32139;DHT22;18644;48.700;9.210;2022-12-24T11:34:27;14.90;64.80
32139;DHT22;18644;48.700;9.210;2022-12-24T11:37:09;14.90;64.40
32139;DHT22;18644;48.700;9.210;2022-12-24T11:39:43;14.90;64.30
32139;DHT22;18644;48.700;9.210;2022-12-24T11:42:27;14.90;64.70
32139;DHT22;18644;48.700;9.210;2022-12-24T11:44:59;14.90;64.70
32139;DHT22;18644;48.700;9.210;2022-12-24T11:47:33;15.00;65.00
32139;DHT22;18644;48.700;9.210;2022-12-24T11:50:19;15.00;65.20
32139;DHT22;18644;48.700;9.210;2022-12-24T11:52:53;15.10;65.20
32139;DHT22;18644;48.700;9.210;2022-12-24T11:55:32;15.10;65.40
32139;DHT22;18644;48.700;9.210;2022-12-24T11:58:10;15.20;65.10
32139;DHT22;18644;48.700;9.210;2022-12-24T12:00:42;15.20;65.00
32139;DHT22;18644;48.700;9.210;2022-12-24T12:03:22;15.30;65.10
32139;DHT22;18644;48.700;9.210;2022-12-24T12:05:55;15.30;64.70
32139;DHT22;18644;48.700;9.210;2022-12-24T12:08:29;15.40;64.70
32139;DHT22;18644;48.700;9.210;2022-12-24T12:10:57;15.50;64.60
32139;DHT22;18644;48.700;9.210;2022-12-24T12:13:28;15.50;64.50
32139;DHT22;18644;48.700;9.210;2022-12-24T12:16:06;15.60;64.50
32139;DHT22;18644;48.700;9.210;2022-12-24T12:18:40;15.60;64.30
32139;DHT22;18644;48.700;9.210;2022-12-24T12:21:13;15.70;64.20
32139;DHT22;18644;48.700;9.210;2022-12-24T12:23:48;15.80;64.30
32139;DHT22;18644;48.700;9.210;2022-12-24T12:26:19;15.80;64.10
32139;DHT22;18644;48.700;9.210;2022-12-24T12:28:50;15.90;63.90
32139;DHT22;18644;48.700;9.210;2022-12-24T12:31:24;16.00;64.00
32139;DHT22;18644;48.700;9.210;2022-12-24T12:33:55;16.10;64.20
32139;DHT22;18644;48.700;9.210;2022-12-24T12:36:27;16.30;64.40
32139;DHT22;18644;48.700;9.210;2022-12-24T12:38:59;16.40;64.20
32139;DHT22;18644;48.700;9.210;2022-12-24T12:41:44;16.60;64.00
32139;DHT22;18644;48.700;9.210;2022-12-24T12:44:40;16.80;63.50
32139;DHT22;18644;48.700;9.210;2022-12-24T12:47:30;17.00;62.90
32139;DHT22;18644;48.700;9.210;2022-12-24T12:50:11;17.20;62.60
32139;DHT22;18644;48.700;9.210;2022-12-24T12:52:51;17.30;62.40
32139;DHT22;18644;48.700;9.210;2022-12-24T12:55:35;17.40;61.90
32139;DHT22;18644;48.700;9.210;2022-12-24T12:58:14;17.50;60.50
32139;DHT22;18644;48.700;9.210;2022-12-24T13:00:44;17.60;60.80
32139;DHT22;18644;48.700;9.210;2022-12-24T13:03:41;17.70;60.70
32139;DHT22;18644;48.700;9.210;2022-12-24T13:09:51;17.80;59.20
32139;DHT22;18644;48.700;9.210;2022-12-24T13:12:45;17.80;59.30
32139;DHT22;18644;48.700;9.210;2022-12-24T13:18:44;17.70;58.70
32139;DHT22;18644;48.700;9.210;2022-12-24T13:21:19;17.70;58.60
32139;DHT22;18644;48.700;9.210;2022-12-24T13:23:47;17.70;58.90
32139;DHT22;18644;48.700;9.210;2022-12-24T13:26:15;17.70;58.60
32139;DHT22;18644;48.700;9.210;2022-12-24T13:28:44;17.60;58.50
32139;DHT22;18644;48.700;9.210;2022-12-24T13:31:29;17.60;58.30
32139;DHT22;18644;48.700;9.210;2022-12-24T13:33:58;17.60;57.80
32139;DHT22;18644;48.700;9.210;2022-12-24T13:36:58;17.50;58.20
32139;DHT22;18644;48.700;9.210;2022-12-24T13:39:27;17.50;57.90
32139;DHT22;18644;48.700;9.210;2022-12-24T13:41:56;17.50;58.30
32139;DHT22;18644;48.700;9.210;2022-12-24T13:44:25;17.40;58.00
32139;DHT22;18644;48.700;9.210;2022-12-24T13:47:18;17.30;57.80
32139;DHT22;18644;48.700;9.210;2022-12-24T13:49:50;17.30;57.50
32139;DHT22;18644;48.700;9.210;2022-12-24T13:52:27;17.20;57.80
32139;DHT22;18644;48.700;9.210;2022-12-24T13:55:06;17.10;57.80
32139;DHT22;18644;48.700;9.210;2022-12-24T13:57:43;17.00;57.40
32139;DHT22;18644;48.700;9.210;2022-12-24T14:00:27;17.00;57.60
32139;DHT22;18644;48.700;9.210;2022-12-24T14:03:01;16.80;57.20
32139;DHT22;18644;48.700;9.210;2022-12-24T14:05:35;16.80;57.70
32139;DHT22;18644;48.700;9.210;2022-12-24T14:08:04;16.70;57.70
32139;DHT22;18644;48.700;9.210;2022-12-24T14:10:38;16.60;57.70
32139;DHT22;18644;48.700;9.210;2022-12-24T14:16:43;16.50;57.90
32139;DHT22;18644;48.700;9.210;2022-12-24T14:19:16;16.50;58.40
32139;DHT22;18644;48.700;9.210;2022-12-24T14:21:52;16.40;58.60
32139;DHT22;18644;48.700;9.210;2022-12-24T14:24:24;16.40;58.60
32139;DHT22;18644;48.700;9.210;2022-12-24T14:26:55;16.40;58.70
32139;DHT22;18644;48.700;9.210;2022-12-24T14:29:28;16.30;58.60
32139;DHT22;18644;48.700;9.210;2022-12-24T14:32:00;16.30;58.60
32139;DHT22;18644;48.700;9.210;2022-12-24T14:34:29;16.30;58.70
32139;DHT22;18644;48.700;9.210;2022-12-24T14:36:58;16.20;58.70
32139;DHT22;18644;48.700;9.210;2022-12-24T14:39:32;16.20;58.80
32139;DHT22;18644;48.700;9.210;2022-12-24T14:42:17;16.10;58.80
32139;DHT22;18644;48.700;9.210;2022-12-24T14:44:58;16.10;58.90
32139;DHT22;18644;48.700;9.210;2022-12-24T14:47:38;16.10;59.00
32139;DHT22;18644;48.700;9.210;2022-12-24T14:50:35;16.00;59.00
32139;DHT22;18644;48.700;9.210;2022-12-24T14:53:15;16.00;58.80
32139;DHT22;18644;48.700;9.210;2022-12-24T14:55:48;15.90;58.90
32139;DHT22;18644;48.700;9.210;2022-12-24T14:58:20;15.90;58.90
32139;DHT22;18644;48.700;9.210;2022-12-24T15:00:55;15.80;59.00
32139;DHT22;18644;48.700;9.210;2022-12-24T15:03:25;15.80;59.10
32139;DHT22;18644;48.700;9.210;2022-12-24T15:05:55;15.70;59.10
32139;DHT22;18644;48.700;9.210;2022-12-24T15:08:28;15.60;59.20
32139;DHT22;18644;48.700;9.210;2022-12-24T15:11:00;15.50;59.20
32139;DHT22;18644;48.700;9.210;2022-12-24T15:13:33;15.50;59.30
32139;DHT22;18644;48.700;9.210;2022-12-24T15:16:03;15.40;59.30
32139;DHT22;18644;48.700;9.210;2022-12-24T15:18:35;15.40;59.40
32139;DHT22;18644;48.700;9.210;2022-12-24T15:21:04;15.30;59.40
32139;DHT22;18644;48.700;9.210;2022-12-24T15:23:34;15.30;59.40
32139;DHT22;18644;48.700;9.210;2022-12-24T15:26:15;15.20;59.60
32139;DHT22;18644;48.700;9.210;2022-12-24T15:28:46;15.10;59.60
32139;DHT22;18644;48.700;9.210;2022-12-24T15:31:14;15.00;60.30
32139;DHT22;18644;48.700;9.210;2022-12-24T15:33:45;14.90;59.70
32139;DHT22;18644;48.700;9.210;2022-12-24T15:36:13;14.90;59.80
32139;DHT22;18644;48.700;9.210;2022-12-24T15:38:42;14.80;59.80
32139;DHT22;18644;48.700;9.210;2022-12-24T15:41:16;14.80;60.00
32139;DHT22;18644;48.700;9.210;2022-12-24T15:43:47;14.70;59.90
32139;DHT22;18644;48.700;9.210;2022-12-24T15:46:20;14.70;60.00
32139;DHT22;18644;48.700;9.210;2022-12-24T15:48:50;14.60;60.00
32139;DHT22;18644;48.700;9.210;2022-12-24T15:51:23;14.60;60.00
32139;DHT22;18644;48.700;9.210;2022-12-24T15:53:57;14.50;60.00
32139;DHT22;18644;48.700;9.210;2022-12-24T15:56:31;14.50;60.10
32139;DHT22;18644;48.700;9.210;2022-12-24T15:59:25;14.40;60.10
32139;DHT22;18644;48.700;9.210;2022-12-24T16:01:55;14.40;60.00
32139;DHT22;18644;48.700;9.210;2022-12-24T16:04:25;14.30;60.20
32139;DHT22;18644;48.700;9.210;2022-12-24T16:06:55;14.30;60.30